createdAt,value
2023-02-25T00:02:39.270Z,7.02
2023-02-25T00:05:19.783Z,6.95
2023-02-25T00:08:04.816Z,6.85
2023-02-25T00:10:55.518Z,6.76
2023-02-25T00:13:44.831Z,6.77
2023-02-25T00:16:33.378Z,6.62
2023-02-25T00:19:25.254Z,6.50
2023-02-25T00:22:03.807Z,6.45
2023-02-25T00:24:48.921Z,6.37
2023-02-25T00:27:41.117Z,6.26
2023-02-25T00:30:26.769Z,6.33
2023-02-25T00:33:20.257Z,6.29
2023-02-25T00:36:01.864Z,6.39
2023-02-25T00:38:48.520Z,6.35
2023-02-25T00:41:29.627Z,6.29
2023-02-25T00:44:15.167Z,6.40
2023-02-25T00:47:06.538Z,6.48
2023-02-25T00:49:50.583Z,6.48
2023-02-25T00:52:49.619Z,6.38
2023-02-25T00:55:36.322Z,6.34
2023-02-25T00:58:41.288Z,6.23
2023-02-25T01:01:47.503Z,6.34
2023-02-25T01:04:24.415Z,6.16
2023-02-25T01:07:06.014Z,6.20
2023-02-25T01:09:52.827Z,6.16
2023-02-25T01:12:40.737Z,6.02
2023-02-25T01:15:36.746Z,5.86
2023-02-25T01:18:25.765Z,5.82
2023-02-25T01:21:25.834Z,5.65
2023-02-25T01:24:03.797Z,5.80
2023-02-25T01:26:52.096Z,5.56
2023-02-25T01:29:45.756Z,5.49
2023-02-25T01:32:26.814Z,5.39
2023-02-25T01:35:17.518Z,5.32
2023-02-25T01:38:06.133Z,5.28
2023-02-25T01:40:57.515Z,5.22
2023-02-25T01:43:41.551Z,5.11
2023-02-25T01:46:32.267Z,5.09
2023-02-25T01:49:34.273Z,4.97
2023-02-25T01:52:30.687Z,4.92
2023-02-25T01:55:15.811Z,4.82
2023-02-25T01:58:06.276Z,4.78
2023-02-25T02:00:55.918Z,4.87
2023-02-25T02:03:43.792Z,4.91
2023-02-25T02:06:30.959Z,5.00
2023-02-25T02:09:09.673Z,5.04
2023-02-25T02:12:01.794Z,4.98
2023-02-25T02:14:45.008Z,5.04
2023-02-25T02:17:52.621Z,5.01
2023-02-25T02:20:52.600Z,5.08
2023-02-25T02:23:48.527Z,5.26
2023-02-25T02:26:47.808Z,5.26
2023-02-25T02:29:39.778Z,5.24
2023-02-25T02:32:35.496Z,5.37
2023-02-25T02:35:31.588Z,5.59
2023-02-25T02:38:40.662Z,5.63
2023-02-25T02:41:39.664Z,5.80
2023-02-25T02:45:14.854Z,6.02
2023-02-25T02:48:08.820Z,6.20
2023-02-25T02:50:55.559Z,6.30
2023-02-25T02:54:06.046Z,6.41
2023-02-25T02:56:43.808Z,6.55
2023-02-25T03:00:07.795Z,6.62
2023-02-25T03:02:50.776Z,6.71
2023-02-25T03:05:38.994Z,6.80
2023-02-25T03:08:24.827Z,6.95
2023-02-25T03:11:07.515Z,6.95
2023-02-25T03:13:43.932Z,7.06
2023-02-25T03:16:45.451Z,7.09
2023-02-25T03:19:48.784Z,7.20
2023-02-25T03:22:56.205Z,7.29
2023-02-25T03:26:07.643Z,7.34
2023-02-25T03:28:59.570Z,7.36
2023-02-25T03:32:11.317Z,7.47
2023-02-25T03:35:12.865Z,7.44
2023-02-25T03:37:56.747Z,7.45
2023-02-25T03:40:41.789Z,7.56
2023-02-25T03:43:29.654Z,7.50
2023-02-25T03:46:18.787Z,7.52
2023-02-25T03:49:02.924Z,7.55
2023-02-25T03:51:48.788Z,7.57
2023-02-25T03:54:34.039Z,7.72
2023-02-25T03:57:18.798Z,7.76
2023-02-25T03:59:57.851Z,7.70
2023-02-25T04:02:43.402Z,7.68
2023-02-25T04:05:23.837Z,7.68
2023-02-25T04:08:22.840Z,7.65
2023-02-25T04:11:12.342Z,7.82
2023-02-25T04:14:02.467Z,7.63
2023-02-25T04:16:51.246Z,7.75
2023-02-25T04:19:36.398Z,7.82
2023-02-25T04:22:14.862Z,7.83
2023-02-25T04:24:55.923Z,7.80
2023-02-25T04:27:36.079Z,7.96
2023-02-25T04:30:15.801Z,8.00
2023-02-25T04:32:56.826Z,8.01
2023-02-25T04:35:53.580Z,7.97
2023-02-25T04:38:45.131Z,7.95
2023-02-25T04:41:25.676Z,7.93
2023-02-25T04:44:10.612Z,7.78
2023-02-25T04:46:54.836Z,7.84
2023-02-25T04:49:27.036Z,7.86
2023-02-25T04:52:09.134Z,7.91
2023-02-25T04:54:58.521Z,7.81
2023-02-25T04:57:47.078Z,7.78
2023-02-25T05:00:35.679Z,7.76
2023-02-25T05:03:18.756Z,7.68
2023-02-25T05:06:09.756Z,7.66
2023-02-25T05:08:48.469Z,7.75
2023-02-25T05:11:31.390Z,7.68
2023-02-25T05:14:15.681Z,7.65
2023-02-25T05:17:03.710Z,7.68
2023-02-25T05:19:44.840Z,7.56
2023-02-25T05:22:22.956Z,7.56
2023-02-25T05:25:06.873Z,7.58
2023-02-25T05:27:45.778Z,7.49
2023-02-25T05:30:21.600Z,7.21
2023-02-25T05:33:28.051Z,7.15
2023-02-25T05:36:11.376Z,7.15
2023-02-25T05:39:04.956Z,7.14
2023-02-25T05:41:51.651Z,7.00
2023-02-25T05:44:34.423Z,6.99
2023-02-25T05:47:19.207Z,6.89
2023-02-25T05:50:01.945Z,6.81
2023-02-25T05:52:44.258Z,6.84
2023-02-25T05:55:26.872Z,6.86
2023-02-25T05:58:09.746Z,6.88
2023-02-25T06:01:03.200Z,6.80
2023-02-25T06:03:45.141Z,6.71
2023-02-25T06:06:31.659Z,6.76
2023-02-25T06:09:24.300Z,6.58
2023-02-25T06:12:09.880Z,6.39
2023-02-25T06:14:49.093Z,6.32
2023-02-25T06:17:35.922Z,6.36
2023-02-25T06:20:17.254Z,6.34
2023-02-25T06:22:57.347Z,6.34
2023-02-25T06:25:32.997Z,6.30
2023-02-25T06:28:19.685Z,6.41
2023-02-25T06:31:02.139Z,6.33
2023-02-25T06:33:50.803Z,6.28
2023-02-25T06:36:33.814Z,6.22
2023-02-25T06:39:17.616Z,6.14
2023-02-25T06:42:06.116Z,5.99
2023-02-25T06:44:46.764Z,6.11
2023-02-25T06:47:32.258Z,5.83
2023-02-25T06:50:19.232Z,5.66
2023-02-25T06:52:57.433Z,5.68
2023-02-25T06:55:43.860Z,5.44
2023-02-25T06:58:31.879Z,5.48
2023-02-25T07:01:20.083Z,5.48
2023-02-25T07:04:03.799Z,5.52
2023-02-25T07:06:44.425Z,5.48
2023-02-25T07:09:30.414Z,5.50
2023-02-25T07:12:20.586Z,5.58
2023-02-25T07:15:09.467Z,5.49
2023-02-25T07:17:49.724Z,5.53
2023-02-25T07:20:40.215Z,5.49
2023-02-25T07:23:26.310Z,5.49
2023-02-25T07:26:10.869Z,5.59
2023-02-25T07:28:57.730Z,5.70
2023-02-25T07:31:48.087Z,5.73
2023-02-25T07:34:25.650Z,5.75
2023-02-25T07:37:09.328Z,5.88
2023-02-25T07:39:58.119Z,5.95
2023-02-25T07:42:39.768Z,5.76
2023-02-25T07:45:22.899Z,5.86
2023-02-25T07:48:18.985Z,5.73
2023-02-25T07:50:59.165Z,5.79
2023-02-25T07:53:47.696Z,5.82
2023-02-25T07:56:28.938Z,5.87
2023-02-25T07:59:15.183Z,5.87
2023-02-25T08:02:04.495Z,5.86
2023-02-25T08:04:50.548Z,5.84
2023-02-25T08:07:37.135Z,5.85
2023-02-25T08:10:21.024Z,5.88
2023-02-25T08:13:05.021Z,5.85
2023-02-25T08:15:53.684Z,5.83
2023-02-25T08:18:32.377Z,5.81
2023-02-25T08:21:07.904Z,5.78
2023-02-25T08:23:45.565Z,5.72
2023-02-25T08:26:32.231Z,5.77
2023-02-25T08:29:23.554Z,5.81
2023-02-25T08:32:28.111Z,5.86
2023-02-25T08:35:06.641Z,5.93
2023-02-25T08:38:03.122Z,5.90
2023-02-25T08:40:54.655Z,5.96
2023-02-25T08:43:38.874Z,6.10
2023-02-25T08:46:20.037Z,6.11
2023-02-25T08:49:04.766Z,6.09
2023-02-25T08:51:47.754Z,5.82
2023-02-25T08:54:29.020Z,5.96
2023-02-25T08:57:17.905Z,5.99
2023-02-25T09:00:06.851Z,5.92
2023-02-25T09:02:51.225Z,5.91
2023-02-25T09:05:30.070Z,6.03
2023-02-25T09:08:21.333Z,6.04
2023-02-25T09:11:11.737Z,6.11
2023-02-25T09:14:05.752Z,6.08
2023-02-25T09:16:41.233Z,6.11
2023-02-25T09:19:27.809Z,6.12
2023-02-25T09:22:05.966Z,6.03
2023-02-25T09:25:04.160Z,6.00
2023-02-25T09:27:57.233Z,6.21
2023-02-25T09:30:47.831Z,6.08
2023-02-25T09:33:38.881Z,6.17
2023-02-25T09:36:27.676Z,6.14
2023-02-25T09:39:10.640Z,6.25
2023-02-25T09:42:11.963Z,6.26
2023-02-25T09:44:56.375Z,6.29
2023-02-25T09:47:49.180Z,6.27
2023-02-25T09:50:32.563Z,6.40
2023-02-25T09:53:44.317Z,6.30
2023-02-25T09:56:31.653Z,6.52
2023-02-25T09:59:23.690Z,6.84
2023-02-25T10:02:33.000Z,6.99
2023-02-25T10:05:25.110Z,7.00
2023-02-25T10:08:49.225Z,7.08
2023-02-25T10:12:20.249Z,7.16
2023-02-25T10:15:18.882Z,7.26
2023-02-25T10:18:25.096Z,7.15
2023-02-25T10:21:43.168Z,7.60
2023-02-25T10:24:57.333Z,7.65
2023-02-25T10:27:40.002Z,7.44
2023-02-25T10:30:43.407Z,7.29
2023-02-25T10:33:43.758Z,7.42
2023-02-25T10:36:43.043Z,7.31
2023-02-25T10:39:20.792Z,7.40
2023-02-25T10:41:58.297Z,7.35
2023-02-25T10:44:43.288Z,7.19
2023-02-25T10:47:46.591Z,7.24
2023-02-25T10:50:45.544Z,7.34
2023-02-25T10:53:37.450Z,7.25
2023-02-25T10:56:15.513Z,7.08
2023-02-25T10:59:30.038Z,7.09
2023-02-25T11:02:27.423Z,7.16
2023-02-25T11:05:08.354Z,7.03
2023-02-25T11:07:55.755Z,7.18
2023-02-25T11:10:37.075Z,7.49
2023-02-25T11:13:38.244Z,7.60
2023-02-25T11:16:27.352Z,7.58
2023-02-25T11:19:25.514Z,7.81
2023-02-25T11:22:13.401Z,7.76
2023-02-25T11:25:04.028Z,7.78
2023-02-25T11:27:54.137Z,7.76
2023-02-25T11:30:49.273Z,7.57
2023-02-25T11:33:38.948Z,7.68
2023-02-25T11:36:23.876Z,7.93
2023-02-25T11:39:16.916Z,7.94
2023-02-25T11:42:07.952Z,7.93
2023-02-25T11:45:04.760Z,7.97
2023-02-25T11:47:54.616Z,8.13
2023-02-25T11:50:49.052Z,8.11
2023-02-25T11:53:49.619Z,8.64
2023-02-25T11:56:59.866Z,9.08
2023-02-25T12:00:07.862Z,9.63
2023-02-25T12:03:06.265Z,10.14
2023-02-25T12:06:17.498Z,10.10
2023-02-25T12:09:52.848Z,10.12
2023-02-25T12:13:25.784Z,10.48
2023-02-25T12:16:29.238Z,10.40
2023-02-25T12:19:57.452Z,10.58
2023-02-25T12:22:53.800Z,10.72
2023-02-25T12:26:07.717Z,10.69
2023-02-25T12:29:15.961Z,10.70
2023-02-25T12:32:36.361Z,10.96
2023-02-25T12:35:52.812Z,10.21
2023-02-25T12:38:54.237Z,9.39
2023-02-25T12:41:47.164Z,9.26
2023-02-25T12:45:02.786Z,8.60
2023-02-25T12:48:43.987Z,8.73
2023-02-25T12:51:50.557Z,8.88
2023-02-25T12:54:58.916Z,9.17
2023-02-25T12:58:20.063Z,9.42
2023-02-25T13:01:24.074Z,9.28
2023-02-25T13:04:18.038Z,9.24
2023-02-25T13:07:24.382Z,8.84
2023-02-25T13:10:04.369Z,8.86
2023-02-25T13:13:33.690Z,9.09
2023-02-25T13:16:33.800Z,9.35
2023-02-25T13:19:28.408Z,9.55
2023-02-25T13:22:26.839Z,9.73
2023-02-25T13:25:19.372Z,9.96
2023-02-25T13:28:24.084Z,9.98
2023-02-25T13:31:10.715Z,9.80
2023-02-25T13:34:08.133Z,9.89
2023-02-25T13:37:08.893Z,10.07
2023-02-25T13:40:33.237Z,9.85
2023-02-25T13:43:54.148Z,9.88
2023-02-25T13:46:59.365Z,9.87
2023-02-25T13:49:56.619Z,9.57
2023-02-25T13:52:57.528Z,9.38
2023-02-25T13:56:01.058Z,8.95
2023-02-25T13:58:48.360Z,8.79
2023-02-25T14:01:45.578Z,8.69
2023-02-25T14:04:35.887Z,8.89
2023-02-25T14:07:38.982Z,8.99
2023-02-25T14:10:39.661Z,9.32
2023-02-25T14:13:27.831Z,9.25
2023-02-25T14:16:53.771Z,9.39
2023-02-25T14:19:42.148Z,9.64
2023-02-25T14:23:14.252Z,9.61
2023-02-25T14:26:14.513Z,9.87
2023-02-25T14:29:47.457Z,9.96
2023-02-25T14:32:41.636Z,9.97
2023-02-25T14:35:50.819Z,9.77
2023-02-25T14:38:55.028Z,9.43
2023-02-25T14:42:12.584Z,9.44
2023-02-25T14:45:21.480Z,9.32
2023-02-25T14:48:27.052Z,9.01
2023-02-25T14:51:35.060Z,9.02
2023-02-25T14:55:11.777Z,8.81
2023-02-25T14:58:18.291Z,8.65
2023-02-25T15:01:34.429Z,8.70
2023-02-25T15:05:03.978Z,8.63
2023-02-25T15:08:17.913Z,8.71
2023-02-25T15:11:09.135Z,8.68
2023-02-25T15:14:13.722Z,8.76
2023-02-25T15:17:06.714Z,8.86
2023-02-25T15:20:17.530Z,8.60
2023-02-25T15:23:17.704Z,8.61
2023-02-25T15:26:48.071Z,8.58
2023-02-25T15:29:58.050Z,8.60
2023-02-25T15:33:00.616Z,8.88
2023-02-25T15:36:14.053Z,8.99
2023-02-25T15:38:58.803Z,8.86
2023-02-25T15:42:05.838Z,8.86
2023-02-25T15:45:29.537Z,8.36
2023-02-25T15:48:27.769Z,7.96
2023-02-25T15:51:09.205Z,7.92
2023-02-25T15:53:56.560Z,7.77
2023-02-25T15:56:50.676Z,7.58
2023-02-25T15:59:45.168Z,7.50
2023-02-25T16:03:03.694Z,7.34
2023-02-25T16:05:47.882Z,7.25
2023-02-25T16:08:44.762Z,7.13
2023-02-25T16:11:50.841Z,7.03
2023-02-25T16:14:42.397Z,6.92
2023-02-25T16:17:45.577Z,6.85
2023-02-25T16:20:40.287Z,6.62
2023-02-25T16:23:24.109Z,6.59
2023-02-25T16:26:28.106Z,6.63
2023-02-25T16:29:25.384Z,6.57
2023-02-25T16:32:07.593Z,6.51
2023-02-25T16:34:48.656Z,6.30
2023-02-25T16:37:53.338Z,6.21
2023-02-25T16:40:37.519Z,6.15
2023-02-25T16:43:44.901Z,6.15
2023-02-25T16:46:29.874Z,5.98
2023-02-25T16:49:51.777Z,6.00
2023-02-25T16:52:43.332Z,5.93
2023-02-25T16:55:23.878Z,5.90
2023-02-25T16:58:18.107Z,5.79
2023-02-25T17:01:04.762Z,5.74
2023-02-25T17:03:51.213Z,5.57
2023-02-25T17:06:50.875Z,5.69
2023-02-25T17:09:32.906Z,5.61
2023-02-25T17:12:22.415Z,5.59
2023-02-25T17:15:24.545Z,5.43
2023-02-25T17:18:03.482Z,5.49
2023-02-25T17:20:48.837Z,5.54
2023-02-25T17:23:32.847Z,5.53
2023-02-25T17:26:24.066Z,5.58
2023-02-25T17:29:09.831Z,5.56
2023-02-25T17:32:00.898Z,5.58
2023-02-25T17:34:43.760Z,5.41
2023-02-25T17:37:26.500Z,5.57
2023-02-25T17:40:22.677Z,5.62
2023-02-25T17:43:39.410Z,5.69
2023-02-25T17:46:45.896Z,5.71
2023-02-25T17:49:39.932Z,5.73
2023-02-25T17:52:39.243Z,5.72
2023-02-25T17:55:55.557Z,5.77
2023-02-25T17:58:44.268Z,5.79
2023-02-25T18:01:55.509Z,5.76
2023-02-25T18:04:53.541Z,5.56
2023-02-25T18:07:34.387Z,5.58
2023-02-25T18:10:29.995Z,5.49
2023-02-25T18:13:30.733Z,5.36
2023-02-25T18:16:25.625Z,5.44
2023-02-25T18:19:08.760Z,5.41
2023-02-25T18:21:51.946Z,5.43
2023-02-25T18:24:36.719Z,5.32
2023-02-25T18:27:29.317Z,5.30
2023-02-25T18:30:27.068Z,5.29
2023-02-25T18:33:14.719Z,5.24
2023-02-25T18:35:59.701Z,5.16
2023-02-25T18:38:52.264Z,5.15
2023-02-25T18:41:38.682Z,5.08
2023-02-25T18:44:35.763Z,5.20
2023-02-25T18:47:22.415Z,5.09
2023-02-25T18:50:11.633Z,4.89
2023-02-25T18:53:11.055Z,5.02
2023-02-25T18:55:57.847Z,4.95
2023-02-25T18:58:37.929Z,4.95
2023-02-25T19:01:32.697Z,4.89
2023-02-25T19:04:22.189Z,4.88
2023-02-25T19:07:07.232Z,4.87
2023-02-25T19:09:51.647Z,4.82
2023-02-25T19:12:37.788Z,4.85
2023-02-25T19:15:31.004Z,4.91
2023-02-25T19:18:33.272Z,4.88
2023-02-25T19:21:37.715Z,4.94
2023-02-25T19:24:34.640Z,4.79
2023-02-25T19:27:31.988Z,4.72
2023-02-25T19:30:15.650Z,4.76
2023-02-25T19:32:55.714Z,4.69
2023-02-25T19:35:42.940Z,4.62
2023-02-25T19:38:20.902Z,4.72
2023-02-25T19:41:10.753Z,4.71
2023-02-25T19:43:58.614Z,4.66
2023-02-25T19:46:48.579Z,4.71
2023-02-25T19:49:38.588Z,4.62
2023-02-25T19:52:27.687Z,4.59
2023-02-25T19:55:14.221Z,4.55
2023-02-25T19:57:58.182Z,4.54
2023-02-25T20:00:46.256Z,4.54
2023-02-25T20:03:30.249Z,4.52
2023-02-25T20:06:29.079Z,4.49
2023-02-25T20:09:10.185Z,4.48
2023-02-25T20:12:00.101Z,4.27
2023-02-25T20:14:41.507Z,4.39
2023-02-25T20:17:28.116Z,4.30
2023-02-25T20:20:26.787Z,4.43
2023-02-25T20:23:10.382Z,4.37
2023-02-25T20:25:54.873Z,4.29
2023-02-25T20:28:40.023Z,4.22
2023-02-25T20:31:22.902Z,4.29
2023-02-25T20:34:19.385Z,4.27
2023-02-25T20:37:23.042Z,4.13
2023-02-25T20:40:04.971Z,4.00
2023-02-25T20:42:43.610Z,3.99
2023-02-25T20:45:30.187Z,3.86
2023-02-25T20:48:25.991Z,3.96
2023-02-25T20:51:18.723Z,3.84
2023-02-25T20:54:06.510Z,3.87
2023-02-25T20:56:55.622Z,3.90
2023-02-25T20:59:34.367Z,3.89
2023-02-25T21:02:17.564Z,3.79
2023-02-25T21:05:05.367Z,3.80
2023-02-25T21:07:50.004Z,3.81
2023-02-25T21:10:32.720Z,3.81
2023-02-25T21:13:22.085Z,3.83
2023-02-25T21:16:07.516Z,3.76
2023-02-25T21:18:56.216Z,3.74
2023-02-25T21:21:37.694Z,3.74
2023-02-25T21:24:24.171Z,3.66
2023-02-25T21:27:14.627Z,3.79
2023-02-25T21:29:53.117Z,3.77
2023-02-25T21:32:35.766Z,3.73
2023-02-25T21:35:27.287Z,3.66
2023-02-25T21:38:17.775Z,3.69
2023-02-25T21:41:01.609Z,3.73
2023-02-25T21:43:49.835Z,3.72
2023-02-25T21:46:38.466Z,3.75
2023-02-25T21:49:31.895Z,3.68
2023-02-25T21:52:13.737Z,3.70
2023-02-25T21:54:58.052Z,3.62
2023-02-25T21:57:42.756Z,3.63
2023-02-25T22:00:24.819Z,3.70
2023-02-25T22:03:06.433Z,3.64
2023-02-25T22:05:51.678Z,3.59
2023-02-25T22:08:35.285Z,3.61
2023-02-25T22:11:15.836Z,3.62
2023-02-25T22:13:56.507Z,3.54
2023-02-25T22:16:43.865Z,3.56
2023-02-25T22:19:42.065Z,3.60
2023-02-25T22:22:28.218Z,3.59
2023-02-25T22:25:15.871Z,3.57
2023-02-25T22:28:07.612Z,3.59
2023-02-25T22:30:54.190Z,3.52
2023-02-25T22:33:33.821Z,3.43
2023-02-25T22:36:18.701Z,3.43
2023-02-25T22:39:02.751Z,3.40
2023-02-25T22:41:50.721Z,3.24
2023-02-25T22:44:40.837Z,3.41
2023-02-25T22:47:28.470Z,3.28
2023-02-25T22:50:04.764Z,3.43
2023-02-25T22:52:50.962Z,3.40
2023-02-25T22:55:35.856Z,3.40
2023-02-25T22:58:28.437Z,3.43
2023-02-25T23:01:09.656Z,3.39
2023-02-25T23:03:57.383Z,3.41
2023-02-25T23:06:50.988Z,3.37
2023-02-25T23:09:40.759Z,3.34
2023-02-25T23:12:33.291Z,3.24
2023-02-25T23:15:25.307Z,3.22
2023-02-25T23:18:14.075Z,3.09
2023-02-25T23:20:58.768Z,3.02
2023-02-25T23:23:42.696Z,3.06
2023-02-25T23:26:17.460Z,2.97
2023-02-25T23:29:05.755Z,3.04
2023-02-25T23:31:56.058Z,3.04
2023-02-25T23:34:46.546Z,2.95
2023-02-25T23:37:38.537Z,2.98
2023-02-25T23:40:38.959Z,2.93
2023-02-25T23:43:36.766Z,2.86
2023-02-25T23:46:17.288Z,2.94
2023-02-25T23:49:07.548Z,2.76
2023-02-25T23:51:50.042Z,2.90
2023-02-25T23:54:33.275Z,2.76
2023-02-25T23:57:16.143Z,2.78
